sensor_id;sensor_type;location;lat;lon;timestamp;temperature;humidity
27747;DHT22;15138;51.012;4.692;2023-03-01T00:01:32;0.90;22.70
27747;DHT22;15138;51.012;4.692;2023-03-01T00:04:03;0.90;20.50
27747;DHT22;15138;51.012;4.692;2023-03-01T00:06:31;0.90;22.10
27747;DHT22;15138;51.012;4.692;2023-03-01T00:08:59;0.80;18.80
27747;DHT22;15138;51.012;4.692;2023-03-01T00:11:29;0.80;19.30
27747;DHT22;15138;51.012;4.692;2023-03-01T00:14:00;0.80;21.40
27747;DHT22;15138;51.012;4.692;2023-03-01T00:16:30;0.80;21.90
27747;DHT22;15138;51.012;4.692;2023-03-01T00:19:01;0.80;19.30
27747;DHT22;15138;51.012;4.692;2023-03-01T00:21:31;0.70;19.20
27747;DHT22;15138;51.012;4.692;2023-03-01T00:24:00;0.80;18.50
27747;DHT22;15138;51.012;4.692;2023-03-01T00:26:29;0.80;19.60
27747;DHT22;15138;51.012;4.692;2023-03-01T00:28:58;0.70;16.10
27747;DHT22;15138;51.012;4.692;2023-03-01T00:31:28;0.70;16.10
27747;DHT22;15138;51.012;4.692;2023-03-01T00:33:58;0.70;15.80
27747;DHT22;15138;51.012;4.692;2023-03-01T00:36:31;0.70;16.70
27747;DHT22;15138;51.012;4.692;2023-03-01T00:39:00;0.60;16.20
27747;DHT22;15138;51.012;4.692;2023-03-01T00:41:30;0.70;19.90
27747;DHT22;15138;51.012;4.692;2023-03-01T00:43:58;0.60;20.00
27747;DHT22;15138;51.012;4.692;2023-03-01T00:46:27;0.60;22.40
27747;DHT22;15138;51.012;4.692;2023-03-01T00:48:57;0.60;19.80
27747;DHT22;15138;51.012;4.692;2023-03-01T00:51:30;0.60;22.10
27747;DHT22;15138;51.012;4.692;2023-03-01T00:54:00;0.60;23.30
27747;DHT22;15138;51.012;4.692;2023-03-01T00:56:29;0.60;23.00
27747;DHT22;15138;51.012;4.692;2023-03-01T00:58:58;0.60;23.70
27747;DHT22;15138;51.012;4.692;2023-03-01T01:01:29;0.60;25.20
27747;DHT22;15138;51.012;4.692;2023-03-01T01:03:59;0.50;26.60
27747;DHT22;15138;51.012;4.692;2023-03-01T01:06:32;0.50;28.00
27747;DHT22;15138;51.012;4.692;2023-03-01T01:09:01;0.50;44.20
27747;DHT22;15138;51.012;4.692;2023-03-01T01:11:31;0.50;28.10
27747;DHT22;15138;51.012;4.692;2023-03-01T01:13:59;0.50;28.00
27747;DHT22;15138;51.012;4.692;2023-03-01T01:16:28;0.50;26.20
27747;DHT22;15138;51.012;4.692;2023-03-01T01:18:57;0.40;26.50
27747;DHT22;15138;51.012;4.692;2023-03-01T01:21:26;0.50;25.90
27747;DHT22;15138;51.012;4.692;2023-03-01T01:23:57;0.40;25.00
27747;DHT22;15138;51.012;4.692;2023-03-01T01:26:27;0.40;24.60
27747;DHT22;15138;51.012;4.692;2023-03-01T01:28:56;0.40;23.70
27747;DHT22;15138;51.012;4.692;2023-03-01T01:31:26;0.40;25.50
27747;DHT22;15138;51.012;4.692;2023-03-01T01:33:55;0.40;27.60
27747;DHT22;15138;51.012;4.692;2023-03-01T01:36:24;0.40;27.10
27747;DHT22;15138;51.012;4.692;2023-03-01T01:38:52;0.40;28.00
27747;DHT22;15138;51.012;4.692;2023-03-01T01:41:22;0.40;27.50
27747;DHT22;15138;51.012;4.692;2023-03-01T01:44:13;0.40;28.60
27747;DHT22;15138;51.012;4.692;2023-03-01T01:46:43;0.30;27.30
27747;DHT22;15138;51.012;4.692;2023-03-01T01:49:19;0.30;28.00
27747;DHT22;15138;51.012;4.692;2023-03-01T01:51:55;0.30;30.20
27747;DHT22;15138;51.012;4.692;2023-03-01T01:54:28;0.30;29.20
27747;DHT22;15138;51.012;4.692;2023-03-01T01:57:03;0.30;31.50
27747;DHT22;15138;51.012;4.692;2023-03-01T01:59:34;0.30;31.00
27747;DHT22;15138;51.012;4.692;2023-03-01T02:02:04;0.40;31.50
27747;DHT22;15138;51.012;4.692;2023-03-01T02:04:33;0.30;28.90
27747;DHT22;15138;51.012;4.692;2023-03-01T02:07:05;0.30;29.60
27747;DHT22;15138;51.012;4.692;2023-03-01T02:09:35;0.30;26.90
27747;DHT22;15138;51.012;4.692;2023-03-01T02:12:05;0.30;26.00
27747;DHT22;15138;51.012;4.692;2023-03-01T02:14:34;0.30;24.30
27747;DHT22;15138;51.012;4.692;2023-03-01T02:17:02;0.30;23.40
27747;DHT22;15138;51.012;4.692;2023-03-01T02:19:41;0.30;23.40
27747;DHT22;15138;51.012;4.692;2023-03-01T02:22:20;0.30;21.80
27747;DHT22;15138;51.012;4.692;2023-03-01T02:25:07;0.30;21.80
27747;DHT22;15138;51.012;4.692;2023-03-01T02:27:49;0.30;21.70
27747;DHT22;15138;51.012;4.692;2023-03-01T02:30:22;0.30;33.50
27747;DHT22;15138;51.012;4.692;2023-03-01T02:32:53;0.20;23.20
27747;DHT22;15138;51.012;4.692;2023-03-01T02:35:31;0.20;23.40
27747;DHT22;15138;51.012;4.692;2023-03-01T02:38:01;0.20;22.80
27747;DHT22;15138;51.012;4.692;2023-03-01T02:40:33;0.20;25.20
27747;DHT22;15138;51.012;4.692;2023-03-01T02:43:05;0.20;24.60
27747;DHT22;15138;51.012;4.692;2023-03-01T02:45:37;0.20;25.20
27747;DHT22;15138;51.012;4.692;2023-03-01T02:48:11;0.20;24.20
27747;DHT22;15138;51.012;4.692;2023-03-01T02:50:59;0.20;24.80
27747;DHT22;15138;51.012;4.692;2023-03-01T02:53:38;0.20;25.40
27747;DHT22;15138;51.012;4.692;2023-03-01T02:56:08;0.10;23.60
27747;DHT22;15138;51.012;4.692;2023-03-01T02:58:40;0.10;24.60
27747;DHT22;15138;51.012;4.692;2023-03-01T03:01:14;0.10;24.20
27747;DHT22;15138;51.012;4.692;2023-03-01T03:03:43;0.10;24.20
27747;DHT22;15138;51.012;4.692;2023-03-01T03:06:12;0.00;23.50
27747;DHT22;15138;51.012;4.692;2023-03-01T03:08:40;0.00;22.10
27747;DHT22;15138;51.012;4.692;2023-03-01T03:11:09;0.00;24.00
27747;DHT22;15138;51.012;4.692;2023-03-01T03:13:37;0.00;23.90
27747;DHT22;15138;51.012;4.692;2023-03-01T03:16:16;0.00;22.40
27747;DHT22;15138;51.012;4.692;2023-03-01T03:18:44;0.00;25.40
27747;DHT22;15138;51.012;4.692;2023-03-01T03:21:13;0.00;25.50
27747;DHT22;15138;51.012;4.692;2023-03-01T03:23:42;0.00;27.90
27747;DHT22;15138;51.012;4.692;2023-03-01T03:26:10;-0.10;29.40
27747;DHT22;15138;51.012;4.692;2023-03-01T03:28:40;-0.10;29.80
27747;DHT22;15138;51.012;4.692;2023-03-01T03:31:08;-0.10;28.90
27747;DHT22;15138;51.012;4.692;2023-03-01T03:33:38;-0.10;33.00
27747;DHT22;15138;51.012;4.692;2023-03-01T03:36:07;-0.10;31.30
27747;DHT22;15138;51.012;4.692;2023-03-01T03:38:40;-0.10;33.30
27747;DHT22;15138;51.012;4.692;2023-03-01T03:41:08;-0.10;34.50
27747;DHT22;15138;51.012;4.692;2023-03-01T03:43:39;-0.10;35.10
27747;DHT22;15138;51.012;4.692;2023-03-01T03:46:11;-0.10;32.20
27747;DHT22;15138;51.012;4.692;2023-03-01T03:48:42;-0.30;36.40
27747;DHT22;15138;51.012;4.692;2023-03-01T03:51:12;-0.20;37.70
27747;DHT22;15138;51.012;4.692;2023-03-01T03:53:41;-0.20;44.00
27747;DHT22;15138;51.012;4.692;2023-03-01T03:56:09;-0.20;46.60
27747;DHT22;15138;51.012;4.692;2023-03-01T03:58:38;-0.20;49.40
27747;DHT22;15138;51.012;4.692;2023-03-01T04:01:06;-0.20;50.80
27747;DHT22;15138;51.012;4.692;2023-03-01T04:03:34;-0.20;51.20
27747;DHT22;15138;51.012;4.692;2023-03-01T04:06:05;-0.20;48.90
27747;DHT22;15138;51.012;4.692;2023-03-01T04:08:33;-0.20;47.70
27747;DHT22;15138;51.012;4.692;2023-03-01T04:11:04;-0.20;43.20
27747;DHT22;15138;51.012;4.692;2023-03-01T04:13:46;-0.20;48.00
27747;DHT22;15138;51.012;4.692;2023-03-01T04:16:15;-0.20;50.20
27747;DHT22;15138;51.012;4.692;2023-03-01T04:18:44;-0.20;51.70
27747;DHT22;15138;51.012;4.692;2023-03-01T04:21:14;-0.30;51.20
27747;DHT22;15138;51.012;4.692;2023-03-01T04:23:43;-0.30;53.00
27747;DHT22;15138;51.012;4.692;2023-03-01T04:26:11;-0.20;52.00
27747;DHT22;15138;51.012;4.692;2023-03-01T04:28:41;-0.20;48.20
27747;DHT22;15138;51.012;4.692;2023-03-01T04:31:14;-0.20;49.70
27747;DHT22;15138;51.012;4.692;2023-03-01T04:33:46;-0.20;51.00
27747;DHT22;15138;51.012;4.692;2023-03-01T04:36:17;-0.20;52.10
27747;DHT22;15138;51.012;4.692;2023-03-01T04:38:46;-0.30;53.50
27747;DHT22;15138;51.012;4.692;2023-03-01T04:41:16;-0.30;50.70
27747;DHT22;15138;51.012;4.692;2023-03-01T04:43:45;-0.20;48.50
27747;DHT22;15138;51.012;4.692;2023-03-01T04:46:17;-0.20;49.50
27747;DHT22;15138;51.012;4.692;2023-03-01T04:48:46;-0.10;47.80
27747;DHT22;15138;51.012;4.692;2023-03-01T04:51:16;-0.20;43.70
27747;DHT22;15138;51.012;4.692;2023-03-01T04:53:45;-0.20;42.50
27747;DHT22;15138;51.012;4.692;2023-03-01T04:56:14;-0.30;42.90
27747;DHT22;15138;51.012;4.692;2023-03-01T04:58:42;-0.30;41.30
27747;DHT22;15138;51.012;4.692;2023-03-01T05:01:12;-0.20;43.90
27747;DHT22;15138;51.012;4.692;2023-03-01T05:03:43;-0.20;44.40
27747;DHT22;15138;51.012;4.692;2023-03-01T05:06:12;-0.20;42.70
27747;DHT22;15138;51.012;4.692;2023-03-01T05:08:42;-0.20;42.70
27747;DHT22;15138;51.012;4.692;2023-03-01T05:11:11;-0.20;39.80
27747;DHT22;15138;51.012;4.692;2023-03-01T05:13:41;-0.20;38.10
27747;DHT22;15138;51.012;4.692;2023-03-01T05:16:09;-0.20;39.90
27747;DHT22;15138;51.012;4.692;2023-03-01T05:18:40;-0.20;40.00
27747;DHT22;15138;51.012;4.692;2023-03-01T05:21:09;-0.20;44.00
27747;DHT22;15138;51.012;4.692;2023-03-01T05:23:38;-0.20;46.40
27747;DHT22;15138;51.012;4.692;2023-03-01T05:26:08;-0.20;45.60
27747;DHT22;15138;51.012;4.692;2023-03-01T05:28:53;-0.30;43.10
27747;DHT22;15138;51.012;4.692;2023-03-01T05:31:26;-0.40;43.90
27747;DHT22;15138;51.012;4.692;2023-03-01T05:33:55;-0.30;41.40
27747;DHT22;15138;51.012;4.692;2023-03-01T05:36:23;-0.30;41.50
27747;DHT22;15138;51.012;4.692;2023-03-01T05:38:51;-0.30;42.50
27747;DHT22;15138;51.012;4.692;2023-03-01T05:41:21;-0.40;45.10
27747;DHT22;15138;51.012;4.692;2023-03-01T05:43:49;-0.40;47.60
27747;DHT22;15138;51.012;4.692;2023-03-01T05:46:17;-0.40;48.60
27747;DHT22;15138;51.012;4.692;2023-03-01T05:48:46;-0.40;48.80
27747;DHT22;15138;51.012;4.692;2023-03-01T05:51:15;-0.40;44.50
27747;DHT22;15138;51.012;4.692;2023-03-01T05:53:44;-0.50;44.90
27747;DHT22;15138;51.012;4.692;2023-03-01T05:56:13;-0.50;48.70
27747;DHT22;15138;51.012;4.692;2023-03-01T05:58:43;-0.40;41.00
27747;DHT22;15138;51.012;4.692;2023-03-01T06:01:11;-0.40;39.30
27747;DHT22;15138;51.012;4.692;2023-03-01T06:03:40;-0.50;38.80
27747;DHT22;15138;51.012;4.692;2023-03-01T06:06:09;-0.50;34.90
27747;DHT22;15138;51.012;4.692;2023-03-01T06:08:37;-0.50;32.40
27747;DHT22;15138;51.012;4.692;2023-03-01T06:11:05;-0.50;33.60
27747;DHT22;15138;51.012;4.692;2023-03-01T06:13:34;-0.50;32.70
27747;DHT22;15138;51.012;4.692;2023-03-01T06:16:06;-0.50;33.50
27747;DHT22;15138;51.012;4.692;2023-03-01T06:18:35;-0.50;36.80
27747;DHT22;15138;51.012;4.692;2023-03-01T06:21:04;-0.60;37.40
27747;DHT22;15138;51.012;4.692;2023-03-01T06:23:32;-0.60;37.20
27747;DHT22;15138;51.012;4.692;2023-03-01T06:26:04;-0.60;37.70
27747;DHT22;15138;51.012;4.692;2023-03-01T06:28:32;-0.60;37.80
27747;DHT22;15138;51.012;4.692;2023-03-01T06:31:01;-0.60;35.10
27747;DHT22;15138;51.012;4.692;2023-03-01T06:33:30;-0.60;35.70
27747;DHT22;15138;51.012;4.692;2023-03-01T06:35:59;-0.60;34.90
27747;DHT22;15138;51.012;4.692;2023-03-01T06:38:27;-0.60;36.10
27747;DHT22;15138;51.012;4.692;2023-03-01T06:40:56;-0.60;37.50
27747;DHT22;15138;51.012;4.692;2023-03-01T06:43:24;-0.70;39.20
27747;DHT22;15138;51.012;4.692;2023-03-01T06:45:52;-0.70;38.50
27747;DHT22;15138;51.012;4.692;2023-03-01T06:48:21;-0.70;39.40
27747;DHT22;15138;51.012;4.692;2023-03-01T06:50:51;-0.60;39.60
27747;DHT22;15138;51.012;4.692;2023-03-01T06:53:19;-0.60;37.20
27747;DHT22;15138;51.012;4.692;2023-03-01T06:55:53;-0.50;39.60
27747;DHT22;15138;51.012;4.692;2023-03-01T06:58:21;-0.50;45.80
27747;DHT22;15138;51.012;4.692;2023-03-01T07:00:49;-0.50;50.30
27747;DHT22;15138;51.012;4.692;2023-03-01T07:03:18;-0.40;51.70
27747;DHT22;15138;51.012;4.692;2023-03-01T07:05:48;-0.30;54.80
27747;DHT22;15138;51.012;4.692;2023-03-01T07:08:20;-0.30;82.70
27747;DHT22;15138;51.012;4.692;2023-03-01T07:10:48;-0.20;70.40
27747;DHT22;15138;51.012;4.692;2023-03-01T07:13:22;0.00;79.90
27747;DHT22;15138;51.012;4.692;2023-03-01T07:15:50;0.20;82.20
27747;DHT22;15138;51.012;4.692;2023-03-01T07:18:19;0.40;87.30
27747;DHT22;15138;51.012;4.692;2023-03-01T07:20:47;0.50;93.00
27747;DHT22;15138;51.012;4.692;2023-03-01T07:23:16;0.80;95.00
27747;DHT22;15138;51.012;4.692;2023-03-01T07:25:51;1.10;95.30
27747;DHT22;15138;51.012;4.692;2023-03-01T07:28:20;1.30;96.30
27747;DHT22;15138;51.012;4.692;2023-03-01T07:30:49;1.70;99.90
27747;DHT22;15138;51.012;4.692;2023-03-01T07:33:17;1.90;99.90
27747;DHT22;15138;51.012;4.692;2023-03-01T07:35:45;2.20;99.90
27747;DHT22;15138;51.012;4.692;2023-03-01T07:38:14;2.60;99.90
27747;DHT22;15138;51.012;4.692;2023-03-01T07:40:42;2.90;99.90
27747;DHT22;15138;51.012;4.692;2023-03-01T07:43:12;3.20;96.70
27747;DHT22;15138;51.012;4.692;2023-03-01T07:45:40;3.30;99.90
27747;DHT22;15138;51.012;4.692;2023-03-01T07:48:09;3.60;99.90
27747;DHT22;15138;51.012;4.692;2023-03-01T07:50:37;4.10;99.90
27747;DHT22;15138;51.012;4.692;2023-03-01T07:53:05;4.40;99.90
27747;DHT22;15138;51.012;4.692;2023-03-01T07:55:34;4.60;98.80
27747;DHT22;15138;51.012;4.692;2023-03-01T07:58:02;5.10;99.90
27747;DHT22;15138;51.012;4.692;2023-03-01T08:00:32;5.50;99.90
27747;DHT22;15138;51.012;4.692;2023-03-01T08:03:01;5.80;1.00
27747;DHT22;15138;51.012;4.692;2023-03-01T08:05:29;6.00;97.10
27747;DHT22;15138;51.012;4.692;2023-03-01T08:07:57;6.50;99.90
27747;DHT22;15138;51.012;4.692;2023-03-01T08:10:25;6.50;73.60
27747;DHT22;15138;51.012;4.692;2023-03-01T08:12:54;7.10;99.90
27747;DHT22;15138;51.012;4.692;2023-03-01T08:15:22;7.50;91.40
27747;DHT22;15138;51.012;4.692;2023-03-01T08:17:52;7.90;99.90
27747;DHT22;15138;51.012;4.692;2023-03-01T08:22:49;8.30;68.70
27747;DHT22;15138;51.012;4.692;2023-03-01T08:25:17;8.90;83.50
27747;DHT22;15138;51.012;4.692;2023-03-01T08:27:46;9.00;78.10
27747;DHT22;15138;51.012;4.692;2023-03-01T08:30:15;9.10;71.20
27747;DHT22;15138;51.012;4.692;2023-03-01T08:32:43;9.60;72.50
27747;DHT22;15138;51.012;4.692;2023-03-01T08:35:13;9.90;67.70
27747;DHT22;15138;51.012;4.692;2023-03-01T08:37:41;10.10;65.90
27747;DHT22;15138;51.012;4.692;2023-03-01T08:40:10;10.70;68.80
27747;DHT22;15138;51.012;4.692;2023-03-01T08:42:40;10.60;60.90
27747;DHT22;15138;51.012;4.692;2023-03-01T08:45:10;10.90;61.70
27747;DHT22;15138;51.012;4.692;2023-03-01T08:47:39;11.30;62.20
27747;DHT22;15138;51.012;4.692;2023-03-01T08:50:08;11.30;55.60
27747;DHT22;15138;51.012;4.692;2023-03-01T08:52:38;11.60;60.90
27747;DHT22;15138;51.012;4.692;2023-03-01T08:55:08;12.00;59.10
27747;DHT22;15138;51.012;4.692;2023-03-01T08:57:36;12.20;56.00
27747;DHT22;15138;51.012;4.692;2023-03-01T09:00:06;12.40;54.40
27747;DHT22;15138;51.012;4.692;2023-03-01T09:02:36;12.80;55.80
27747;DHT22;15138;51.012;4.692;2023-03-01T09:05:05;12.40;47.00
27747;DHT22;15138;51.012;4.692;2023-03-01T09:07:34;12.40;50.60
27747;DHT22;15138;51.012;4.692;2023-03-01T09:10:05;12.40;52.20
27747;DHT22;15138;51.012;4.692;2023-03-01T09:12:33;12.70;52.90
27747;DHT22;15138;51.012;4.692;2023-03-01T09:15:02;13.00;50.60
27747;DHT22;15138;51.012;4.692;2023-03-01T09:17:30;13.30;54.10
27747;DHT22;15138;51.012;4.692;2023-03-01T09:19:59;13.50;42.80
27747;DHT22;15138;51.012;4.692;2023-03-01T09:22:27;13.10;49.60
27747;DHT22;15138;51.012;4.692;2023-03-01T09:24:56;13.50;47.60
27747;DHT22;15138;51.012;4.692;2023-03-01T09:27:27;13.00;41.50
27747;DHT22;15138;51.012;4.692;2023-03-01T09:29:55;13.70;49.60
27747;DHT22;15138;51.012;4.692;2023-03-01T09:32:24;14.30;48.50
27747;DHT22;15138;51.012;4.692;2023-03-01T09:34:52;13.90;41.60
27747;DHT22;15138;51.012;4.692;2023-03-01T09:37:32;14.30;42.50
27747;DHT22;15138;51.012;4.692;2023-03-01T09:40:01;14.80;48.50
27747;DHT22;15138;51.012;4.692;2023-03-01T09:42:32;14.80;41.20
27747;DHT22;15138;51.012;4.692;2023-03-01T09:45:04;14.60;43.30
27747;DHT22;15138;51.012;4.692;2023-03-01T09:47:34;14.80;40.90
27747;DHT22;15138;51.012;4.692;2023-03-01T09:50:09;15.10;46.30
27747;DHT22;15138;51.012;4.692;2023-03-01T09:52:41;14.90;41.60
27747;DHT22;15138;51.012;4.692;2023-03-01T09:55:13;15.30;41.40
27747;DHT22;15138;51.012;4.692;2023-03-01T09:57:48;15.30;43.70
27747;DHT22;15138;51.012;4.692;2023-03-01T10:00:26;15.20;42.00
27747;DHT22;15138;51.012;4.692;2023-03-01T10:03:03;15.70;38.50
27747;DHT22;15138;51.012;4.692;2023-03-01T10:05:41;15.30;38.90
27747;DHT22;15138;51.012;4.692;2023-03-01T10:08:25;15.80;38.40
27747;DHT22;15138;51.012;4.692;2023-03-01T10:10:56;15.80;33.70
27747;DHT22;15138;51.012;4.692;2023-03-01T10:13:33;16.70;36.90
27747;DHT22;15138;51.012;4.692;2023-03-01T10:16:05;15.90;34.00
27747;DHT22;15138;51.012;4.692;2023-03-01T10:18:38;16.40;37.50
27747;DHT22;15138;51.012;4.692;2023-03-01T10:21:15;16.90;37.20
27747;DHT22;15138;51.012;4.692;2023-03-01T10:23:46;17.00;35.70
27747;DHT22;15138;51.012;4.692;2023-03-01T10:26:29;16.90;32.10
27747;DHT22;15138;51.012;4.692;2023-03-01T10:29:04;16.80;33.20
27747;DHT22;15138;51.012;4.692;2023-03-01T10:31:40;17.60;35.90
27747;DHT22;15138;51.012;4.692;2023-03-01T10:34:15;18.00;35.20
27747;DHT22;15138;51.012;4.692;2023-03-01T10:36:47;18.00;36.30
27747;DHT22;15138;51.012;4.692;2023-03-01T10:39:18;18.10;36.30
27747;DHT22;15138;51.012;4.692;2023-03-01T10:41:56;17.60;28.70
27747;DHT22;15138;51.012;4.692;2023-03-01T10:44:42;18.00;29.70
27747;DHT22;15138;51.012;4.692;2023-03-01T10:47:28;18.10;28.20
27747;DHT22;15138;51.012;4.692;2023-03-01T10:49:59;18.60;26.10
27747;DHT22;15138;51.012;4.692;2023-03-01T10:52:31;18.20;27.80
27747;DHT22;15138;51.012;4.692;2023-03-01T10:55:03;18.00;20.60
27747;DHT22;15138;51.012;4.692;2023-03-01T10:57:37;18.30;27.30
27747;DHT22;15138;51.012;4.692;2023-03-01T11:00:20;18.70;20.30
27747;DHT22;15138;51.012;4.692;2023-03-01T11:05:57;18.40;21.20
27747;DHT22;15138;51.012;4.692;2023-03-01T11:08:47;18.60;22.50
27747;DHT22;15138;51.012;4.692;2023-03-01T11:11:26;19.30;26.30
27747;DHT22;15138;51.012;4.692;2023-03-01T11:14:00;19.50;24.50
27747;DHT22;15138;51.012;4.692;2023-03-01T11:16:38;19.30;23.00
27747;DHT22;15138;51.012;4.692;2023-03-01T11:19:16;19.10;35.30
27747;DHT22;15138;51.012;4.692;2023-03-01T11:21:58;19.40;17.30
27747;DHT22;15138;51.012;4.692;2023-03-01T11:24:34;19.30;19.20
27747;DHT22;15138;51.012;4.692;2023-03-01T11:27:16;19.40;17.90
27747;DHT22;15138;51.012;4.692;2023-03-01T11:29:46;19.30;17.70
27747;DHT22;15138;51.012;4.692;2023-03-01T11:32:20;20.20;20.80
27747;DHT22;15138;51.012;4.692;2023-03-01T11:34:55;20.30;20.10
27747;DHT22;15138;51.012;4.692;2023-03-01T11:37:32;20.70;21.50
27747;DHT22;15138;51.012;4.692;2023-03-01T11:40:14;20.20;21.10
27747;DHT22;15138;51.012;4.692;2023-03-01T11:42:53;21.30;20.10
27747;DHT22;15138;51.012;4.692;2023-03-01T11:45:26;21.40;18.10
27747;DHT22;15138;51.012;4.692;2023-03-01T11:48:09;21.30;17.90
27747;DHT22;15138;51.012;4.692;2023-03-01T11:50:44;21.20;13.30
27747;DHT22;15138;51.012;4.692;2023-03-01T11:53:34;21.60;16.10
27747;DHT22;15138;51.012;4.692;2023-03-01T11:56:19;21.70;16.30
27747;DHT22;15138;51.012;4.692;2023-03-01T11:59:18;21.90;11.00
27747;DHT22;15138;51.012;4.692;2023-03-01T12:02:16;21.70;13.70
27747;DHT22;15138;51.012;4.692;2023-03-01T12:08:01;22.00;13.70
27747;DHT22;15138;51.012;4.692;2023-03-01T12:10:38;22.10;9.70
27747;DHT22;15138;51.012;4.692;2023-03-01T12:13:31;22.10;8.70
27747;DHT22;15138;51.012;4.692;2023-03-01T12:16:15;22.40;10.50
27747;DHT22;15138;51.012;4.692;2023-03-01T12:19:20;22.60;6.50
27747;DHT22;15138;51.012;4.692;2023-03-01T12:22:01;22.60;8.30
27747;DHT22;15138;51.012;4.692;2023-03-01T12:25:06;22.20;4.30
27747;DHT22;15138;51.012;4.692;2023-03-01T12:30:43;22.40;4.20
27747;DHT22;15138;51.012;4.692;2023-03-01T12:33:26;22.00;4.90
27747;DHT22;15138;51.012;4.692;2023-03-01T12:36:22;22.20;3.70
27747;DHT22;15138;51.012;4.692;2023-03-01T12:39:03;22.20;1.50
27747;DHT22;15138;51.012;4.692;2023-03-01T12:41:50;21.50;7.40
27747;DHT22;15138;51.012;4.692;2023-03-01T12:44:35;21.20;2.70
27747;DHT22;15138;51.012;4.692;2023-03-01T12:47:20;21.20;1.00
27747;DHT22;15138;51.012;4.692;2023-03-01T12:49:55;21.20;1.20
27747;DHT22;15138;51.012;4.692;2023-03-01T12:52:37;20.80;1.00
27747;DHT22;15138;51.012;4.692;2023-03-01T12:55:18;20.40;6.70
27747;DHT22;15138;51.012;4.692;2023-03-01T12:57:55;21.40;5.10
27747;DHT22;15138;51.012;4.692;2023-03-01T13:00:28;21.10;2.90
27747;DHT22;15138;51.012;4.692;2023-03-01T13:03:05;21.10;3.20
27747;DHT22;15138;51.012;4.692;2023-03-01T13:05:42;21.20;1.00
27747;DHT22;15138;51.012;4.692;2023-03-01T13:08:19;21.30;1.00
27747;DHT22;15138;51.012;4.692;2023-03-01T13:10:51;21.80;1.00
27747;DHT22;15138;51.012;4.692;2023-03-01T13:13:24;20.70;5.60
27747;DHT22;15138;51.012;4.692;2023-03-01T13:15:53;21.20;1.80
27747;DHT22;15138;51.012;4.692;2023-03-01T13:18:32;20.80;2.00
27747;DHT22;15138;51.012;4.692;2023-03-01T13:21:02;21.10;1.00
27747;DHT22;15138;51.012;4.692;2023-03-01T13:23:35;21.10;1.00
27747;DHT22;15138;51.012;4.692;2023-03-01T13:26:12;21.40;2.00
27747;DHT22;15138;51.012;4.692;2023-03-01T13:28:53;21.40;1.20
27747;DHT22;15138;51.012;4.692;2023-03-01T13:34:44;21.30;1.00
27747;DHT22;15138;51.012;4.692;2023-03-01T13:37:28;21.20;1.00
27747;DHT22;15138;51.012;4.692;2023-03-01T13:39:59;21.20;1.00
27747;DHT22;15138;51.012;4.692;2023-03-01T13:42:37;21.10;1.00
27747;DHT22;15138;51.012;4.692;2023-03-01T13:45:21;21.20;1.00
27747;DHT22;15138;51.012;4.692;2023-03-01T13:47:53;21.20;1.00
27747;DHT22;15138;51.012;4.692;2023-03-01T13:50:27;20.80;1.00
27747;DHT22;15138;51.012;4.692;2023-03-01T13:52:58;21.20;1.00
27747;DHT22;15138;51.012;4.692;2023-03-01T13:55:36;21.20;1.00
27747;DHT22;15138;51.012;4.692;2023-03-01T13:58:19;21.30;1.00
27747;DHT22;15138;51.012;4.692;2023-03-01T14:00:57;21.00;7.00
27747;DHT22;15138;51.012;4.692;2023-03-01T14:03:26;20.20;1.00
27747;DHT22;15138;51.012;4.692;2023-03-01T14:06:00;20.60;1.00
27747;DHT22;15138;51.012;4.692;2023-03-01T14:08:42;20.90;1.00
27747;DHT22;15138;51.012;4.692;2023-03-01T14:14:23;20.80;1.00
27747;DHT22;15138;51.012;4.692;2023-03-01T14:17:04;20.30;1.00
27747;DHT22;15138;51.012;4.692;2023-03-01T14:19:36;20.00;1.00
27747;DHT22;15138;51.012;4.692;2023-03-01T14:22:17;19.90;1.00
27747;DHT22;15138;51.012;4.692;2023-03-01T14:24:50;19.90;1.00
27747;DHT22;15138;51.012;4.692;2023-03-01T14:27:19;20.30;1.00
27747;DHT22;15138;51.012;4.692;2023-03-01T14:29:55;19.90;1.00
27747;DHT22;15138;51.012;4.692;2023-03-01T14:32:29;19.50;1.00
27747;DHT22;15138;51.012;4.692;2023-03-01T14:34:59;19.90;1.00
27747;DHT22;15138;51.012;4.692;2023-03-01T14:37:30;19.60;1.00
27747;DHT22;15138;51.012;4.692;2023-03-01T14:40:02;19.30;1.00
27747;DHT22;15138;51.012;4.692;2023-03-01T14:42:34;19.70;1.00
27747;DHT22;15138;51.012;4.692;2023-03-01T14:45:04;20.10;1.00
27747;DHT22;15138;51.012;4.692;2023-03-01T14:47:37;20.00;1.00
27747;DHT22;15138;51.012;4.692;2023-03-01T14:50:19;19.40;1.00
27747;DHT22;15138;51.012;4.692;2023-03-01T14:52:50;19.40;1.00
27747;DHT22;15138;51.012;4.692;2023-03-01T14:55:26;19.30;3.90
27747;DHT22;15138;51.012;4.692;2023-03-01T14:57:56;19.00;1.00
27747;DHT22;15138;51.012;4.692;2023-03-01T15:00:28;18.90;1.00
27747;DHT22;15138;51.012;4.692;2023-03-01T15:03:01;19.20;3.50
27747;DHT22;15138;51.012;4.692;2023-03-01T15:05:31;19.40;1.00
27747;DHT22;15138;51.012;4.692;2023-03-01T15:08:01;19.30;1.00
27747;DHT22;15138;51.012;4.692;2023-03-01T15:10:32;19.20;1.00
27747;DHT22;15138;51.012;4.692;2023-03-01T15:13:11;19.00;1.00
27747;DHT22;15138;51.012;4.692;2023-03-01T15:15:41;19.10;1.00
27747;DHT22;15138;51.012;4.692;2023-03-01T15:18:17;19.10;1.00
27747;DHT22;15138;51.012;4.692;2023-03-01T15:20:47;18.80;1.00
27747;DHT22;15138;51.012;4.692;2023-03-01T15:23:22;18.50;1.00
27747;DHT22;15138;51.012;4.692;2023-03-01T15:25:52;18.70;1.00
27747;DHT22;15138;51.012;4.692;2023-03-01T15:28:26;18.70;1.00
27747;DHT22;15138;51.012;4.692;2023-03-01T15:30:58;18.60;1.00
27747;DHT22;15138;51.012;4.692;2023-03-01T15:33:36;17.50;1.00
27747;DHT22;15138;51.012;4.692;2023-03-01T15:36:39;17.40;1.00
27747;DHT22;15138;51.012;4.692;2023-03-01T15:39:29;17.40;1.00
27747;DHT22;15138;51.012;4.692;2023-03-01T15:41:59;17.20;1.00
27747;DHT22;15138;51.012;4.692;2023-03-01T15:44:29;17.20;1.00
27747;DHT22;15138;51.012;4.692;2023-03-01T15:47:23;16.40;1.00
27747;DHT22;15138;51.012;4.692;2023-03-01T15:49:55;16.30;1.00
27747;DHT22;15138;51.012;4.692;2023-03-01T15:52:27;16.20;1.00
27747;DHT22;15138;51.012;4.692;2023-03-01T15:54:58;16.10;1.00
27747;DHT22;15138;51.012;4.692;2023-03-01T15:57:27;15.90;1.00
27747;DHT22;15138;51.012;4.692;2023-03-01T15:59:56;15.90;1.00
27747;DHT22;15138;51.012;4.692;2023-03-01T16:02:24;15.70;1.00
27747;DHT22;15138;51.012;4.692;2023-03-01T16:04:54;15.80;1.00
27747;DHT22;15138;51.012;4.692;2023-03-01T16:07:23;15.50;1.00
27747;DHT22;15138;51.012;4.692;2023-03-01T16:09:54;15.30;1.00
27747;DHT22;15138;51.012;4.692;2023-03-01T16:14:52;14.70;1.00
27747;DHT22;15138;51.012;4.692;2023-03-01T16:19:49;14.30;1.00
27747;DHT22;15138;51.012;4.692;2023-03-01T16:24:52;13.80;1.00
27747;DHT22;15138;51.012;4.692;2023-03-01T16:27:20;13.70;1.00
27747;DHT22;15138;51.012;4.692;2023-03-01T16:29:49;13.60;1.00
27747;DHT22;15138;51.012;4.692;2023-03-01T16:32:17;13.30;1.00
27747;DHT22;15138;51.012;4.692;2023-03-01T16:34:46;13.10;1.00
27747;DHT22;15138;51.012;4.692;2023-03-01T16:37:16;13.00;1.00
27747;DHT22;15138;51.012;4.692;2023-03-01T16:39:47;12.80;1.00